SBOSBO HYD / VOHS
Speedbird OnlineSpeedbird Online HYD / VOHS

Rajiv Gandhi International Airport
19:33 24°C

Location Hyderabad, India
Latitude: 17.2313175201
Longitude: 78.4298553467
Web Airport Website | Wikipedia
Altitude 617 Meter / 2024 Feet
Distance 7,714 KM / 4,793 Miles
from London.
Time Zone UTC +5.5 hours (Asia/Calcutta)
Codes IATA: HYD
ICAO: VOHS
Currency £1 equals INR 100.75
Runways
RunwayLength (m)Surface
09L3707Asphalt
09R4260Asphalt
27L4260Asphalt
27R3707Asphalt
Radio
TypeDescriptionFrequency
APP120.25
APP125.55
ATIS126.47
CONTROL-1120.95
CONTROL-2128.35
CONTROL-3129.7
DELIVERY121.62
GROUND121.62
SMC121.85
TOWER118.45
Live ATC
METAR VOHS 311330Z 09005KT 5000 HZ SCT015 24/16 Q1015 NOSIG
TAF TAF VOHS 311100Z 3112/0118 10010KT 4000 SCT015 SCT100 TEMPO 3122/3124 VRB03KT 3000 HZ NSC TEMPO 0100/0103 VRB03KT 1500 BR SCT015 BECMG 0103/0105 11005KT 3000 HZ FEW015 BECMG 0106/01007 12010KT 5000 SCT015
Weather As Of 31 Jan 2023 19:33
Description Haze
Wind 9 km/h from East (80°)
Cloud Cover 40%
Precipitation Rain: none, Snow: none
Sunrise 06:48
Sunset 18:10
Lounges Plaza Premium Lounge (Temporarily Closed), International Departures
Rotations During the last 90 days there were
86 flights from LHR
86 flights to LHR



Support Speedbird Online

© 2017-2023 Speedbird Online